Time,TemperatureF,DewpointF,PressureIn,WindDirection,WindDirectionDegrees,WindSpeedMPH,WindSpeedGustMPH,Humidity,HourlyPrecipIn,Conditions,Clouds,dailyrainin,SoftwareType,DateUTC
2013-01-27 00:00:00,25.0,19.4,30.38,East,82,4.5,4.5,79,0.00,,,0.00,VWS V14.01,2013-01-27 05:00:00,
2013-01-27 00:01:00,25.0,19.4,30.38,East,94,4.5,6.0,79,0.00,,,0.00,VWS V14.01,2013-01-27 05:01:00,
2013-01-27 00:06:00,25.0,19.0,30.38,East,84,1.5,3.0,78,0.00,,,0.00,VWS V14.01,2013-01-27 05:06:00,
2013-01-27 00:11:00,24.9,19.2,30.38,East,87,3.0,3.0,79,0.00,,,0.00,VWS V14.01,2013-01-27 05:11:00,
2013-01-27 00:16:00,24.9,19.2,30.38,East,89,3.0,3.0,79,0.00,,,0.00,VWS V14.01,2013-01-27 05:16:00,
2013-01-27 00:21:00,24.9,19.2,30.39,East,84,6.0,7.5,79,0.00,,,0.00,VWS V14.01,2013-01-27 05:21:00,
2013-01-27 00:26:00,25.1,19.1,30.39,East,82,4.5,4.5,78,0.00,,,0.00,VWS V14.01,2013-01-27 05:26:00,
2013-01-27 00:31:00,25.0,19.0,30.39,East,91,3.0,3.0,78,0.00,,,0.00,VWS V14.01,2013-01-27 05:31:00,
2013-01-27 00:36:00,24.9,19.2,30.39,ENE,73,3.0,3.0,79,0.00,,,0.00,VWS V14.01,2013-01-27 05:36:00,
2013-01-27 00:41:00,24.9,19.2,30.39,ENE,77,6.0,7.5,79,0.00,,,0.00,VWS V14.01,2013-01-27 05:41:00,
2013-01-27 00:46:00,24.9,19.2,30.39,ENE,71,4.5,4.5,79,0.00,,,0.00,VWS V14.01,2013-01-27 05:46:00,
2013-01-27 00:51:00,24.9,19.2,30.39,ENE,78,3.0,3.0,79,0.00,,,0.00,VWS V14.01,2013-01-27 05:51:00,
2013-01-27 00:56:00,24.7,19.0,30.39,East,79,1.5,1.5,79,0.00,,,0.00,VWS V14.01,2013-01-27 05:56:00,
2013-01-27 01:01:00,24.5,18.9,30.39,ENE,74,1.5,1.5,79,0.00,,,0.00,VWS V14.01,2013-01-27 06:01:00,
2013-01-27 01:06:00,24.2,18.9,30.39,ENE,74,1.5,1.5,80,0.00,,,0.00,VWS V14.01,2013-01-27 06:06:00,
2013-01-27 01:11:00,24.0,18.7,30.39,East,91,3.0,4.5,80,0.00,,,0.00,VWS V14.01,2013-01-27 06:11:00,
2013-01-27 01:16:00,24.0,18.7,30.38,East,86,3.0,6.0,80,0.00,,,0.00,VWS V14.01,2013-01-27 06:16:00,
2013-01-27 01:21:00,23.9,18.9,30.38,East,84,1.5,4.5,81,0.00,,,0.00,VWS V14.01,2013-01-27 06:21:00,
2013-01-27 01:26:00,23.8,18.5,30.38,East,84,1.5,1.5,80,0.00,,,0.00,VWS V14.01,2013-01-27 06:26:00,
2013-01-27 01:31:00,23.6,18.6,30.38,East,96,1.5,4.5,81,0.00,,,0.00,VWS V14.01,2013-01-27 06:31:00,
2013-01-27 01:36:00,23.7,18.7,30.38,ESE,120,1.5,4.5,81,0.00,,,0.00,VWS V14.01,2013-01-27 06:36:00,
2013-01-27 01:41:00,23.7,18.7,30.38,East,99,1.5,4.5,81,0.00,,,0.00,VWS V14.01,2013-01-27 06:41:00,
2013-01-27 01:46:00,23.6,18.6,30.38,ESE,105,1.5,3.0,81,0.00,,,0.00,VWS V14.01,2013-01-27 06:46:00,
2013-01-27 01:51:00,23.5,18.5,30.38,East,89,3.0,3.0,81,0.00,,,0.00,VWS V14.01,2013-01-27 06:51:00,
2013-01-27 01:56:00,23.5,18.8,30.38,East,82,3.0,3.0,82,0.00,,,0.00,VWS V14.01,2013-01-27 06:56:00,
2013-01-27 02:01:00,23.5,18.8,30.39,ENE,73,3.0,3.0,82,0.00,,,0.00,VWS V14.01,2013-01-27 07:01:00,
2013-01-27 02:06:00,23.4,18.4,30.39,ENE,72,1.5,1.5,81,0.00,,,0.00,VWS V14.01,2013-01-27 07:06:00,
2013-01-27 02:13:00,23.3,18.6,30.39,East,82,3.0,3.0,82,0.00,,,0.00,VWS V14.01,2013-01-27 07:13:00,
2013-01-27 02:18:00,23.3,18.6,30.39,ENE,77,3.0,4.5,82,0.00,,,0.00,VWS V14.01,2013-01-27 07:18:00,
2013-01-27 02:23:00,23.3,18.6,30.38,SE,133,3.0,7.5,82,0.00,,,0.00,VWS V14.01,2013-01-27 07:23:00,
2013-01-27 02:28:00,23.2,18.5,30.38,SSE,154,1.5,1.5,82,0.00,,,0.00,VWS V14.01,2013-01-27 07:28:00,
2013-01-27 02:33:00,23.1,18.4,30.39,ENE,69,3.0,4.5,82,0.00,,,0.00,VWS V14.01,2013-01-27 07:33:00,
2013-01-27 02:38:00,23.0,18.3,30.38,ESE,103,4.5,6.0,82,0.00,,,0.00,VWS V14.01,2013-01-27 07:38:00,
2013-01-27 02:43:00,23.0,18.6,30.38,ESE,102,4.5,4.5,83,0.00,,,0.00,VWS V14.01,2013-01-27 07:43:00,
2013-01-27 02:48:00,23.0,18.6,30.37,ESE,110,1.5,4.5,83,0.00,,,0.00,VWS V14.01,2013-01-27 07:48:00,
2013-01-27 02:53:00,23.0,18.3,30.37,ESE,120,1.5,1.5,82,0.00,,,0.00,VWS V14.01,2013-01-27 07:53:00,
2013-01-27 02:58:00,22.9,18.2,30.37,East,89,1.5,3.0,82,0.00,,,0.00,VWS V14.01,2013-01-27 07:58:00,
2013-01-27 03:03:00,22.8,18.4,30.37,ENE,76,1.5,3.0,83,0.00,,,0.00,VWS V14.01,2013-01-27 08:03:00,
2013-01-27 03:08:00,22.8,18.4,30.37,East,94,3.0,4.5,83,0.00,,,0.00,VWS V14.01,2013-01-27 08:08:00,
2013-01-27 03:13:00,22.9,18.5,30.37,East,86,4.5,4.5,83,0.00,,,0.00,VWS V14.01,2013-01-27 08:13:00,
2013-01-27 03:18:00,23.0,18.6,30.37,East,80,1.5,6.0,83,0.00,,,0.00,VWS V14.01,2013-01-27 08:18:00,
2013-01-27 03:23:00,23.0,18.6,30.38,East,79,3.0,4.5,83,0.00,,,0.00,VWS V14.01,2013-01-27 08:23:00,
2013-01-27 03:27:00,23.0,18.6,30.38,East,81,4.5,4.5,83,0.00,,,0.00,VWS V14.01,2013-01-27 08:27:00,
2013-01-27 03:32:00,23.2,18.8,30.38,ENE,76,3.0,4.5,83,0.00,,,0.00,VWS V14.01,2013-01-27 08:32:00,
2013-01-27 03:37:00,23.3,18.9,30.38,East,86,3.0,4.5,83,0.00,,,0.00,VWS V14.01,2013-01-27 08:37:00,
2013-01-27 03:42:00,23.3,18.9,30.38,East,82,3.0,3.0,83,0.00,,,0.00,VWS V14.01,2013-01-27 08:42:00,
2013-01-27 03:47:00,23.2,18.8,30.38,East,85,1.5,1.5,83,0.00,,,0.00,VWS V14.01,2013-01-27 08:47:00,
2013-01-27 03:52:00,23.0,18.6,30.38,East,84,1.5,1.5,83,0.00,,,0.00,VWS V14.01,2013-01-27 08:52:00,
2013-01-27 03:57:00,22.9,18.8,30.39,East,84,1.5,1.5,84,0.00,,,0.00,VWS V14.01,2013-01-27 08:57:00,
2013-01-27 04:02:00,22.6,18.2,30.39,East,84,1.5,1.5,83,0.00,,,0.00,VWS V14.01,2013-01-27 09:02:00,
2013-01-27 04:07:00,22.6,18.5,30.39,East,86,1.5,3.0,84,0.00,,,0.00,VWS V14.01,2013-01-27 09:07:00,
2013-01-27 04:12:00,22.6,18.5,30.38,East,79,3.0,4.5,84,0.00,,,0.00,VWS V14.01,2013-01-27 09:12:00,
2013-01-27 04:17:00,22.6,18.5,30.38,ENE,74,1.5,3.0,84,0.00,,,0.00,VWS V14.01,2013-01-27 09:17:00,
2013-01-27 04:22:00,22.7,18.6,30.38,East,81,3.0,4.5,84,0.00,,,0.00,VWS V14.01,2013-01-27 09:22:00,
2013-01-27 04:27:00,22.8,18.7,30.38,ENE,67,4.5,7.5,84,0.00,,,0.00,VWS V14.01,2013-01-27 09:27:00,
2013-01-27 04:32:00,22.8,18.4,30.38,ESE,103,4.5,4.5,83,0.00,,,0.00,VWS V14.01,2013-01-27 09:32:00,
2013-01-27 04:37:00,22.9,18.8,30.38,ENE,78,3.0,6.0,84,0.00,,,0.00,VWS V14.01,2013-01-27 09:37:00,
2013-01-27 04:42:00,23.0,18.6,30.38,East,86,4.5,4.5,83,0.00,,,0.00,VWS V14.01,2013-01-27 09:42:00,
2013-01-27 04:47:00,23.0,18.6,30.38,East,88,7.5,7.5,83,0.00,,,0.00,VWS V14.01,2013-01-27 09:47:00,
2013-01-27 04:52:00,23.1,18.7,30.38,ENE,77,4.5,6.0,83,0.00,,,0.00,VWS V14.01,2013-01-27 09:52:00,
2013-01-27 05:00:00,23.0,18.6,30.38,East,92,3.0,6.0,83,0.00,,,0.00,VWS V14.01,2013-01-27 10:00:00,
2013-01-27 05:05:00,22.8,18.4,30.37,East,90,6.0,6.0,83,0.00,,,0.00,VWS V14.01,2013-01-27 10:05:00,
2013-01-27 05:10:00,22.8,18.7,30.37,East,101,7.5,7.5,84,0.00,,,0.00,VWS V14.01,2013-01-27 10:10:00,
2013-01-27 05:15:00,22.8,18.7,30.37,East,85,3.0,3.0,84,0.00,,,0.00,VWS V14.01,2013-01-27 10:15:00,
2013-01-27 05:20:00,22.8,18.7,30.36,SE,126,7.5,7.5,84,0.00,,,0.00,VWS V14.01,2013-01-27 10:20:00,
2013-01-27 05:25:00,22.8,18.7,30.36,East,85,1.5,7.5,84,0.00,,,0.00,VWS V14.01,2013-01-27 10:25:00,
2013-01-27 05:30:00,22.6,18.2,30.36,ESE,117,4.5,4.5,83,0.00,,,0.00,VWS V14.01,2013-01-27 10:30:00,
2013-01-27 05:35:00,22.4,18.3,30.36,SE,146,1.5,6.0,84,0.00,,,0.00,VWS V14.01,2013-01-27 10:35:00,
2013-01-27 05:40:00,22.4,18.3,30.36,ESE,113,6.0,6.0,84,0.00,,,0.00,VWS V14.01,2013-01-27 10:40:00,
2013-01-27 05:45:00,22.5,18.4,30.36,East,92,3.0,4.5,84,0.00,,,0.00,VWS V14.01,2013-01-27 10:45:00,
2013-01-27 05:50:00,22.6,18.5,30.36,East,89,4.5,6.0,84,0.00,,,0.00,VWS V14.01,2013-01-27 10:50:00,
2013-01-27 05:55:00,22.6,18.5,30.37,SSE,149,1.5,3.0,84,0.00,,,0.00,VWS V14.01,2013-01-27 10:55:00,
2013-01-27 06:00:00,22.5,18.4,30.37,East,94,1.5,1.5,84,0.00,,,0.00,VWS V14.01,2013-01-27 11:00:00,
2013-01-27 06:05:00,22.5,18.4,30.37,East,96,1.5,3.0,84,0.00,,,0.00,VWS V14.01,2013-01-27 11:05:00,
2013-01-27 06:10:00,22.5,18.4,30.37,SE,125,4.5,4.5,84,0.00,,,0.00,VWS V14.01,2013-01-27 11:10:00,
2013-01-27 06:15:00,22.5,18.4,30.38,SE,141,1.5,1.5,84,0.00,,,0.00,VWS V14.01,2013-01-27 11:15:00,
2013-01-27 06:20:00,22.4,18.3,30.38,SSE,168,1.5,1.5,84,0.00,,,0.00,VWS V14.01,2013-01-27 11:20:00,
2013-01-27 06:25:00,22.3,18.5,30.39,East,85,1.5,3.0,85,0.00,,,0.00,VWS V14.01,2013-01-27 11:25:00,
2013-01-27 06:30:00,22.3,18.2,30.38,ENE,76,3.0,4.5,84,0.00,,,0.00,VWS V14.01,2013-01-27 11:30:00,
2013-01-27 06:35:00,22.3,18.2,30.39,East,89,4.5,4.5,84,0.00,,,0.00,VWS V14.01,2013-01-27 11:35:00,
2013-01-27 06:40:00,22.2,18.4,30.38,ENE,70,3.0,4.5,85,0.00,,,0.00,VWS V14.01,2013-01-27 11:40:00,
2013-01-27 06:45:00,22.2,18.4,30.38,East,86,3.0,3.0,85,0.00,,,0.00,VWS V14.01,2013-01-27 11:45:00,
2013-01-27 06:50:00,22.1,18.3,30.39,ENE,70,1.5,1.5,85,0.00,,,0.00,VWS V14.01,2013-01-27 11:50:00,
2013-01-27 06:55:00,22.0,18.2,30.38,East,79,3.0,6.0,85,0.00,,,0.00,VWS V14.01,2013-01-27 11:55:00,
2013-01-27 07:00:00,22.0,18.2,30.38,ENE,74,7.5,7.5,85,0.00,,,0.00,VWS V14.01,2013-01-27 12:00:00,
2013-01-27 07:04:00,22.0,18.2,30.38,ESE,123,3.0,4.5,85,0.00,,,0.00,VWS V14.01,2013-01-27 12:04:00,
2013-01-27 07:09:00,22.1,18.6,30.38,East,84,3.0,4.5,86,0.00,,,0.00,VWS V14.01,2013-01-27 12:09:00,
2013-01-27 07:14:00,22.2,18.4,30.38,ENE,63,4.5,4.5,85,0.00,,,0.00,VWS V14.01,2013-01-27 12:14:00,
2013-01-27 07:19:00,22.3,18.5,30.39,East,89,3.0,4.5,85,0.00,,,0.00,VWS V14.01,2013-01-27 12:19:00,
2013-01-27 07:24:00,22.4,18.6,30.39,ENE,78,4.5,6.0,85,0.00,,,0.00,VWS V14.01,2013-01-27 12:24:00,
2013-01-27 07:29:00,22.6,18.8,30.39,East,85,3.0,3.0,85,0.00,,,0.00,VWS V14.01,2013-01-27 12:29:00,
2013-01-27 07:34:00,22.7,18.9,30.39,ENE,76,4.5,7.5,85,0.00,,,0.00,VWS V14.01,2013-01-27 12:34:00,
2013-01-27 07:39:00,22.8,19.0,30.39,ENE,70,4.5,9.0,85,0.00,,,0.00,VWS V14.01,2013-01-27 12:39:00,
2013-01-27 07:44:00,23.0,19.2,30.39,ENE,67,6.0,10.5,85,0.00,,,0.00,VWS V14.01,2013-01-27 12:44:00,
2013-01-27 07:49:00,23.3,19.5,30.39,ESE,108,7.5,7.5,85,0.00,,,0.00,VWS V14.01,2013-01-27 12:49:00,
2013-01-27 07:54:00,23.5,19.7,30.39,ESE,116,4.5,6.0,85,0.00,,,0.00,VWS V14.01,2013-01-27 12:54:00,
2013-01-27 07:59:00,23.6,19.8,30.39,ENE,65,6.0,7.5,85,0.00,,,0.00,VWS V14.01,2013-01-27 12:59:00,
2013-01-27 08:04:00,23.7,19.9,30.39,East,80,4.5,6.0,85,0.00,,,0.00,VWS V14.01,2013-01-27 13:04:00,
2013-01-27 08:09:00,23.9,20.1,30.38,NE,56,9.0,10.5,85,0.00,,,0.00,VWS V14.01,2013-01-27 13:09:00,
2013-01-27 08:14:00,24.2,20.4,30.38,East,82,6.0,6.0,85,0.00,,,0.00,VWS V14.01,2013-01-27 13:14:00,
2013-01-27 08:19:00,24.5,20.7,30.39,ENE,70,6.0,7.5,85,0.00,,,0.00,VWS V14.01,2013-01-27 13:19:00,
2013-01-27 08:24:00,24.8,21.0,30.38,East,79,9.0,12.0,85,0.00,,,0.00,VWS V14.01,2013-01-27 13:24:00,
2013-01-27 08:29:00,25.1,21.2,30.39,ENE,66,6.0,6.0,85,0.00,,,0.00,VWS V14.01,2013-01-27 13:29:00,
2013-01-27 08:34:00,25.4,21.5,30.39,East,87,7.5,13.5,85,0.00,,,0.00,VWS V14.01,2013-01-27 13:34:00,
2013-01-27 08:39:00,25.7,21.5,30.39,East,96,7.5,7.5,84,0.00,,,0.00,VWS V14.01,2013-01-27 13:39:00,
2013-01-27 08:44:00,25.9,21.7,30.38,East,85,4.5,6.0,84,0.00,,,0.00,VWS V14.01,2013-01-27 13:44:00,
2013-01-27 08:49:00,26.0,21.8,30.39,East,92,9.0,12.0,84,0.00,,,0.00,VWS V14.01,2013-01-27 13:49:00,
2013-01-27 08:54:00,26.3,22.1,30.38,East,96,9.0,9.0,84,0.00,,,0.00,VWS V14.01,2013-01-27 13:54:00,
2013-01-27 08:59:00,26.6,22.4,30.38,East,87,4.5,6.0,84,0.00,,,0.00,VWS V14.01,2013-01-27 13:59:00,
2013-01-27 09:04:00,27.0,22.8,30.38,East,88,7.5,9.0,84,0.00,,,0.00,VWS V14.01,2013-01-27 14:04:00,
2013-01-27 09:09:00,27.5,23.0,30.38,ENE,76,9.0,9.0,83,0.00,,,0.00,VWS V14.01,2013-01-27 14:09:00,
2013-01-27 09:14:00,27.8,23.3,30.38,ENE,60,3.0,3.0,83,0.00,,,0.00,VWS V14.01,2013-01-27 14:14:00,
2013-01-27 09:19:00,28.2,23.4,30.38,ENE,69,6.0,6.0,82,0.00,,,0.00,VWS V14.01,2013-01-27 14:19:00,
2013-01-27 09:24:00,28.8,24.0,30.37,ENE,74,7.5,7.5,82,0.00,,,0.00,VWS V14.01,2013-01-27 14:24:00,
2013-01-27 09:29:00,29.5,24.4,30.38,ESE,103,4.5,4.5,81,0.00,,,0.00,VWS V14.01,2013-01-27 14:29:00,
2013-01-27 09:34:00,30.1,24.3,30.38,East,99,9.0,10.5,79,0.00,,,0.00,VWS V14.01,2013-01-27 14:34:00,
2013-01-27 09:39:00,30.2,24.1,30.38,ENE,65,7.5,7.5,78,0.00,,,0.00,VWS V14.01,2013-01-27 14:39:00,
2013-01-27 09:44:00,30.2,24.1,30.38,SE,141,7.5,13.5,78,0.00,,,0.00,VWS V14.01,2013-01-27 14:44:00,
2013-01-27 09:49:00,30.3,24.2,30.38,ENE,77,4.5,6.0,78,0.00,,,0.00,VWS V14.01,2013-01-27 14:49:00,
2013-01-27 09:54:00,30.4,24.3,30.37,East,86,6.0,12.0,78,0.00,,,0.00,VWS V14.01,2013-01-27 14:54:00,
2013-01-27 09:59:00,30.5,24.4,30.37,East,82,6.0,10.5,78,0.00,,,0.00,VWS V14.01,2013-01-27 14:59:00,
2013-01-27 10:04:00,30.8,24.7,30.37,SE,140,6.0,9.0,78,0.00,,,0.00,VWS V14.01,2013-01-27 15:04:00,
2013-01-27 10:09:00,31.1,24.6,30.36,East,99,12.0,12.0,77,0.00,,,0.00,VWS V14.01,2013-01-27 15:09:00,
2013-01-27 10:14:00,31.4,24.9,30.36,East,87,4.5,4.5,77,0.00,,,0.00,VWS V14.01,2013-01-27 15:14:00,
2013-01-27 10:19:00,31.9,25.1,30.37,East,94,10.5,13.5,76,0.00,,,0.00,VWS V14.01,2013-01-27 15:19:00,
2013-01-27 10:24:00,32.1,25.3,30.37,East,101,6.0,6.0,76,0.00,,,0.00,VWS V14.01,2013-01-27 15:24:00,
2013-01-27 10:29:00,32.4,25.2,30.37,SE,136,7.5,7.5,75,0.00,,,0.00,VWS V14.01,2013-01-27 15:29:00,
2013-01-27 10:34:00,32.8,25.6,30.37,ENE,74,3.0,3.0,75,0.00,,,0.00,VWS V14.01,2013-01-27 15:34:00,
2013-01-27 10:39:00,33.4,25.9,30.37,ESE,120,4.5,6.0,74,0.00,,,0.00,VWS V14.01,2013-01-27 15:39:00,
2013-01-27 10:44:00,33.9,26.0,30.38,SW,226,3.0,4.5,72,0.00,,,0.00,VWS V14.01,2013-01-27 15:44:00,
2013-01-27 10:49:00,34.4,25.8,30.38,SE,137,1.5,3.0,70,0.00,,,0.00,VWS V14.01,2013-01-27 15:49:00,
2013-01-27 10:54:00,34.7,26.0,30.38,SE,140,3.0,9.0,70,0.00,,,0.00,VWS V14.01,2013-01-27 15:54:00,
2013-01-27 10:59:00,35.0,26.0,30.38,East,86,4.5,7.5,69,0.00,,,0.00,VWS V14.01,2013-01-27 15:59:00,
2013-01-27 11:04:00,35.2,26.2,30.38,SW,221,1.5,1.5,69,0.00,,,0.00,VWS V14.01,2013-01-27 16:04:00,
2013-01-27 11:09:00,35.7,26.3,30.38,ENE,67,4.5,6.0,68,0.00,,,0.00,VWS V14.01,2013-01-27 16:09:00,
2013-01-27 11:14:00,36.0,26.6,30.38,SE,138,6.0,6.0,68,0.00,,,0.00,VWS V14.01,2013-01-27 16:14:00,
2013-01-27 11:19:00,36.4,27.0,30.38,ESE,122,4.5,6.0,68,0.00,,,0.00,VWS V14.01,2013-01-27 16:19:00,
2013-01-27 11:24:00,36.9,26.7,30.38,SSE,150,6.0,7.5,66,0.00,,,0.00,VWS V14.01,2013-01-27 16:24:00,
2013-01-27 11:29:00,37.2,26.6,30.38,ESE,105,3.0,3.0,65,0.00,,,0.00,VWS V14.01,2013-01-27 16:29:00,
2013-01-27 11:34:00,37.5,26.5,30.38,ENE,62,3.0,3.0,64,0.00,,,0.00,VWS V14.01,2013-01-27 16:34:00,
2013-01-27 11:39:00,37.9,26.8,30.37,East,89,4.5,6.0,64,0.00,,,0.00,VWS V14.01,2013-01-27 16:39:00,
2013-01-27 11:44:00,38.3,26.8,30.36,East,91,12.0,12.0,63,0.00,,,0.00,VWS V14.01,2013-01-27 16:44:00,
2013-01-27 11:49:00,38.6,26.7,30.36,NE,52,6.0,7.5,62,0.00,,,0.00,VWS V14.01,2013-01-27 16:49:00,
2013-01-27 11:54:00,39.1,26.8,30.36,ESE,110,1.5,6.0,61,0.00,,,0.00,VWS V14.01,2013-01-27 16:54:00,
2013-01-27 11:59:00,39.5,26.7,30.36,SE,133,3.0,3.0,60,0.00,,,0.00,VWS V14.01,2013-01-27 16:59:00,
2013-01-27 12:04:00,39.9,25.8,30.36,SSE,160,3.0,7.5,57,0.00,,,0.00,VWS V14.01,2013-01-27 17:04:00,
2013-01-27 12:09:00,40.4,25.8,30.36,South,191,4.5,7.5,56,0.00,,,0.00,VWS V14.01,2013-01-27 17:09:00,
2013-01-27 12:14:00,40.7,25.6,30.36,WSW,244,6.0,6.0,55,0.00,,,0.00,VWS V14.01,2013-01-27 17:14:00,
2013-01-27 12:19:00,41.0,25.0,30.35,NE,56,1.5,9.0,52,0.00,,,0.00,VWS V14.01,2013-01-27 17:19:00,
2013-01-27 12:24:00,41.2,25.1,30.35,South,182,7.5,7.5,52,0.00,,,0.00,VWS V14.01,2013-01-27 17:24:00,
2013-01-27 12:29:00,41.6,25.5,30.35,South,169,6.0,6.0,52,0.00,,,0.00,VWS V14.01,2013-01-27 17:29:00,
2013-01-27 12:34:00,41.9,25.3,30.35,SSE,150,3.0,7.5,51,0.00,,,0.00,VWS V14.01,2013-01-27 17:34:00,
2013-01-27 12:39:00,42.1,25.5,30.35,ENE,77,7.5,7.5,51,0.00,,,0.00,VWS V14.01,2013-01-27 17:39:00,
2013-01-27 12:44:00,42.1,25.5,30.35,South,174,6.0,10.5,51,0.00,,,0.00,VWS V14.01,2013-01-27 17:44:00,
2013-01-27 12:49:00,42.6,26.5,30.34,ESE,105,6.0,7.5,52,0.00,,,0.00,VWS V14.01,2013-01-27 17:49:00,
2013-01-27 12:54:00,42.8,26.1,30.34,South,179,9.0,9.0,51,0.00,,,0.00,VWS V14.01,2013-01-27 17:54:00,
2013-01-27 12:58:00,43.1,26.4,30.33,East,98,7.5,10.5,51,0.00,,,0.00,VWS V14.01,2013-01-27 17:58:00,
2013-01-27 13:04:00,42.9,25.8,30.33,East,91,10.5,10.5,50,0.00,,,0.00,VWS V14.01,2013-01-27 18:04:00,
2013-01-27 13:09:00,43.0,26.3,30.32,East,100,7.5,7.5,51,0.00,,,0.00,VWS V14.01,2013-01-27 18:09:00,
2013-01-27 13:14:00,43.2,26.5,30.32,East,81,6.0,6.0,51,0.00,,,0.00,VWS V14.01,2013-01-27 18:14:00,
2013-01-27 13:18:00,43.3,26.1,30.32,East,80,4.5,7.5,50,0.00,,,0.00,VWS V14.01,2013-01-27 18:18:00,
2013-01-27 13:23:00,43.3,26.1,30.31,South,171,6.0,9.0,50,0.00,,,0.00,VWS V14.01,2013-01-27 18:23:00,
2013-01-27 13:28:00,43.4,26.2,30.31,East,86,7.5,7.5,50,0.00,,,0.00,VWS V14.01,2013-01-27 18:28:00,
2013-01-27 13:33:00,43.7,27.0,30.31,SE,137,7.5,10.5,51,0.00,,,0.00,VWS V14.01,2013-01-27 18:33:00,
2013-01-27 13:38:00,43.7,27.0,30.31,ESE,113,6.0,7.5,51,0.00,,,0.00,VWS V14.01,2013-01-27 18:38:00,
2013-01-27 13:43:00,44.2,27.0,30.30,South,188,4.5,7.5,50,0.00,,,0.00,VWS V14.01,2013-01-27 18:43:00,
2013-01-27 13:48:00,44.3,26.5,30.30,ESE,120,4.5,6.0,49,0.00,,,0.00,VWS V14.01,2013-01-27 18:48:00,
2013-01-27 13:53:00,44.5,26.7,30.30,SW,217,3.0,4.5,49,0.00,,,0.00,VWS V14.01,2013-01-27 18:53:00,
2013-01-27 13:58:00,44.6,26.3,30.29,ENE,75,7.5,7.5,48,0.00,,,0.00,VWS V14.01,2013-01-27 18:58:00,
2013-01-27 14:03:00,44.6,26.8,30.29,ESE,113,4.5,12.0,49,0.00,,,0.00,VWS V14.01,2013-01-27 19:03:00,
2013-01-27 14:08:00,44.6,26.3,30.28,ESE,119,4.5,9.0,48,0.00,,,0.00,VWS V14.01,2013-01-27 19:08:00,
2013-01-27 14:13:00,44.8,27.0,30.28,SE,131,3.0,6.0,49,0.00,,,0.00,VWS V14.01,2013-01-27 19:13:00,
2013-01-27 14:18:00,45.2,26.3,30.27,East,97,3.0,9.0,47,0.00,,,0.00,VWS V14.01,2013-01-27 19:18:00,
2013-01-27 14:23:00,45.3,26.4,30.27,ENE,72,7.5,12.0,47,0.00,,,0.00,VWS V14.01,2013-01-27 19:23:00,
2013-01-27 14:28:00,45.5,26.6,30.27,ESE,108,4.5,7.5,47,0.00,,,0.00,VWS V14.01,2013-01-27 19:28:00,
2013-01-27 14:33:00,45.4,26.0,30.27,East,93,10.5,10.5,46,0.00,,,0.00,VWS V14.01,2013-01-27 19:33:00,
2013-01-27 14:38:00,45.3,25.9,30.26,ENE,70,13.5,16.5,46,0.00,,,0.00,VWS V14.01,2013-01-27 19:38:00,
2013-01-27 14:43:00,45.0,26.1,30.26,ESE,113,3.0,7.5,47,0.00,,,0.00,VWS V14.01,2013-01-27 19:43:00,
2013-01-27 14:48:00,45.0,26.1,30.27,SE,127,4.5,6.0,47,0.00,,,0.00,VWS V14.01,2013-01-27 19:48:00,
2013-01-27 14:53:00,45.0,26.1,30.27,East,79,4.5,6.0,47,0.00,,,0.00,VWS V14.01,2013-01-27 19:53:00,
2013-01-27 14:58:00,45.0,26.7,30.27,East,96,3.0,4.5,48,0.00,,,0.00,VWS V14.01,2013-01-27 19:58:00,
2013-01-27 15:03:00,45.1,26.2,30.27,East,92,4.5,7.5,47,0.00,,,0.00,VWS V14.01,2013-01-27 20:03:00,
2013-01-27 15:08:00,45.1,26.2,30.27,South,178,3.0,4.5,47,0.00,,,0.00,VWS V14.01,2013-01-27 20:08:00,
2013-01-27 15:13:00,45.2,26.3,30.27,SE,137,7.5,7.5,47,0.00,,,0.00,VWS V14.01,2013-01-27 20:13:00,
2013-01-27 15:18:00,45.3,26.9,30.27,South,169,6.0,7.5,48,0.00,,,0.00,VWS V14.01,2013-01-27 20:18:00,
2013-01-27 15:23:00,45.4,27.0,30.27,SSW,193,6.0,6.0,48,0.00,,,0.00,VWS V14.01,2013-01-27 20:23:00,
2013-01-27 15:28:00,45.5,27.1,30.27,South,185,7.5,7.5,48,0.00,,,0.00,VWS V14.01,2013-01-27 20:28:00,
2013-01-27 15:33:00,45.7,27.3,30.26,SSE,155,6.0,6.0,48,0.00,,,0.00,VWS V14.01,2013-01-27 20:33:00,
2013-01-27 15:38:00,45.8,27.4,30.26,SSE,150,3.0,6.0,48,0.00,,,0.00,VWS V14.01,2013-01-27 20:38:00,
2013-01-27 15:43:00,45.8,27.9,30.26,SW,224,4.5,7.5,49,0.00,,,0.00,VWS V14.01,2013-01-27 20:43:00,
2013-01-27 15:48:00,45.8,27.9,30.26,SSE,150,1.5,6.0,49,0.00,,,0.00,VWS V14.01,2013-01-27 20:48:00,
2013-01-27 15:53:00,45.9,28.0,30.26,SSE,151,1.5,3.0,49,0.00,,,0.00,VWS V14.01,2013-01-27 20:53:00,
2013-01-27 15:58:00,46.0,28.1,30.26,SSE,162,4.5,7.5,49,0.00,,,0.00,VWS V14.01,2013-01-27 20:58:00,
2013-01-27 16:03:00,45.8,27.9,30.26,South,188,6.0,7.5,49,0.00,,,0.00,VWS V14.01,2013-01-27 21:03:00,
2013-01-27 16:08:00,45.7,28.3,30.26,SW,221,1.5,1.5,50,0.00,,,0.00,VWS V14.01,2013-01-27 21:08:00,
2013-01-27 16:13:00,45.6,28.8,30.26,SE,133,1.5,3.0,51,0.00,,,0.00,VWS V14.01,2013-01-27 21:13:00,
2013-01-27 16:18:00,45.7,29.3,30.26,South,176,1.5,6.0,52,0.00,,,0.00,VWS V14.01,2013-01-27 21:18:00,
2013-01-27 16:23:00,45.6,29.2,30.25,SSW,212,4.5,9.0,52,0.00,,,0.00,VWS V14.01,2013-01-27 21:23:00,
2013-01-27 16:28:00,45.4,29.5,30.25,South,188,1.5,3.0,54,0.00,,,0.00,VWS V14.01,2013-01-27 21:28:00,
2013-01-27 16:33:00,45.3,29.9,30.25,SSE,164,3.0,6.0,55,0.00,,,0.00,VWS V14.01,2013-01-27 21:33:00,
2013-01-27 16:38:00,45.3,29.9,30.25,SW,217,3.0,3.0,55,0.00,,,0.00,VWS V14.01,2013-01-27 21:38:00,
2013-01-27 16:43:00,45.2,30.3,30.25,East,87,6.0,6.0,56,0.00,,,0.00,VWS V14.01,2013-01-27 21:43:00,
2013-01-27 16:48:00,45.1,30.2,30.24,SE,141,3.0,3.0,56,0.00,,,0.00,VWS V14.01,2013-01-27 21:48:00,
2013-01-27 16:53:00,45.0,30.6,30.24,SSW,193,4.5,6.0,57,0.00,,,0.00,VWS V14.01,2013-01-27 21:53:00,
2013-01-27 16:58:00,45.0,30.6,30.24,SSW,203,3.0,3.0,57,0.00,,,0.00,VWS V14.01,2013-01-27 21:58:00,
2013-01-27 17:03:00,45.0,31.0,30.24,South,185,3.0,3.0,58,0.00,,,0.00,VWS V14.01,2013-01-27 22:03:00,
2013-01-27 17:08:00,44.9,30.9,30.24,ESE,113,4.5,4.5,58,0.00,,,0.00,VWS V14.01,2013-01-27 22:08:00,
2013-01-27 17:13:00,44.9,30.9,30.24,SE,144,4.5,6.0,58,0.00,,,0.00,VWS V14.01,2013-01-27 22:13:00,
2013-01-27 17:18:00,44.8,31.3,30.24,South,188,4.5,6.0,59,0.00,,,0.00,VWS V14.01,2013-01-27 22:18:00,
2013-01-27 17:23:00,44.8,31.3,30.24,SSE,158,1.5,1.5,59,0.00,,,0.00,VWS V14.01,2013-01-27 22:23:00,
2013-01-27 17:28:00,44.6,31.5,30.24,SE,144,3.0,3.0,60,0.00,,,0.00,VWS V14.01,2013-01-27 22:28:00,
2013-01-27 17:33:00,44.5,31.4,30.24,SSW,198,1.5,1.5,60,0.00,,,0.00,VWS V14.01,2013-01-27 22:33:00,
2013-01-27 17:38:00,44.4,31.8,30.23,SSE,147,3.0,4.5,61,0.00,,,0.00,VWS V14.01,2013-01-27 22:38:00,
2013-01-27 17:43:00,44.4,31.8,30.23,NE,54,3.0,3.0,61,0.00,,,0.00,VWS V14.01,2013-01-27 22:43:00,
2013-01-27 17:48:00,44.3,32.1,30.23,SE,127,3.0,4.5,62,0.00,,,0.00,VWS V14.01,2013-01-27 22:48:00,
2013-01-27 17:53:00,44.2,32.0,30.23,SSE,160,3.0,3.0,62,0.00,,,0.00,VWS V14.01,2013-01-27 22:53:00,
2013-01-27 17:58:00,44.2,32.4,30.23,SSW,209,1.5,1.5,63,0.00,,,0.00,VWS V14.01,2013-01-27 22:58:00,
2013-01-27 18:03:00,44.1,32.3,30.23,SE,133,1.5,3.0,63,0.00,,,0.00,VWS V14.01,2013-01-27 23:03:00,
2013-01-27 18:08:00,44.0,32.2,30.23,SW,233,1.5,1.5,63,0.00,,,0.00,VWS V14.01,2013-01-27 23:08:00,
2013-01-27 18:13:00,43.9,32.5,30.23,SE,138,1.5,1.5,64,0.00,,,0.00,VWS V14.01,2013-01-27 23:13:00,
2013-01-27 18:18:00,43.9,33.0,30.23,SSE,153,3.0,3.0,65,0.00,,,0.00,VWS V14.01,2013-01-27 23:18:00,
2013-01-27 18:23:00,43.9,33.0,30.23,SSE,160,3.0,3.0,65,0.00,,,0.00,VWS V14.01,2013-01-27 23:23:00,
2013-01-27 18:28:00,43.9,33.3,30.23,SE,127,3.0,3.0,66,0.00,,,0.00,VWS V14.01,2013-01-27 23:28:00,
2013-01-27 18:33:00,43.9,33.3,30.22,SW,215,4.5,7.5,66,0.00,,,0.00,VWS V14.01,2013-01-27 23:33:00,
2013-01-27 18:38:00,43.9,33.7,30.22,SSE,147,4.5,4.5,67,0.00,,,0.00,VWS V14.01,2013-01-27 23:38:00,
2013-01-27 18:43:00,43.7,34.3,30.22,South,175,6.0,6.0,69,0.00,,,0.00,VWS V14.01,2013-01-27 23:43:00,
2013-01-27 18:48:00,43.6,34.2,30.22,SE,142,3.0,3.0,69,0.00,,,0.00,VWS V14.01,2013-01-27 23:48:00,
2013-01-27 18:53:00,43.4,34.4,30.22,South,186,3.0,3.0,70,0.00,,,0.00,VWS V14.01,2013-01-27 23:53:00,
2013-01-27 18:58:00,43.3,34.7,30.22,East,94,1.5,1.5,71,0.00,,,0.00,VWS V14.01,2013-01-27 23:58:00,
2013-01-27 19:03:00,43.1,35.2,30.22,SE,131,4.5,4.5,74,0.00,,,0.00,VWS V14.01,2013-01-28 00:03:00,
2013-01-27 19:08:00,43.0,35.5,30.22,South,172,7.5,7.5,75,0.00,,,0.00,VWS V14.01,2013-01-28 00:08:00,
2013-01-27 19:13:00,42.8,35.6,30.22,SSE,151,6.0,6.0,76,0.00,,,0.00,VWS V14.01,2013-01-28 00:13:00,
2013-01-27 19:18:00,42.8,35.6,30.22,South,176,6.0,6.0,76,0.00,,,0.00,VWS V14.01,2013-01-28 00:18:00,
2013-01-27 19:23:00,42.7,35.9,30.21,SW,214,3.0,3.0,77,0.00,,,0.00,VWS V14.01,2013-01-28 00:23:00,
2013-01-27 19:28:00,42.6,36.1,30.21,South,187,7.5,7.5,78,0.01,,,0.01,VWS V14.01,2013-01-28 00:28:00,
2013-01-27 19:33:00,42.5,36.4,30.21,WSW,247,4.5,12.0,79,0.01,,,0.01,VWS V14.01,2013-01-28 00:33:00,
2013-01-27 19:38:00,42.5,36.4,30.21,SSW,196,3.0,7.5,79,0.01,,,0.01,VWS V14.01,2013-01-28 00:38:00,
2013-01-27 19:43:00,42.4,36.6,30.21,South,191,4.5,4.5,80,0.01,,,0.01,VWS V14.01,2013-01-28 00:43:00,
2013-01-27 19:48:00,42.3,36.8,30.22,South,188,3.0,6.0,81,0.01,,,0.01,VWS V14.01,2013-01-28 00:48:00,
2013-01-27 19:53:00,42.2,37.1,30.22,ENE,76,3.0,3.0,82,0.01,,,0.01,VWS V14.01,2013-01-28 00:53:00,
2013-01-27 19:58:00,42.1,37.3,30.21,South,182,6.0,7.5,83,0.02,,,0.02,VWS V14.01,2013-01-28 00:58:00,
2013-01-27 20:03:00,42.0,37.5,30.21,South,171,1.5,3.0,84,0.02,,,0.02,VWS V14.01,2013-01-28 01:03:00,
2013-01-27 20:08:00,41.9,37.4,30.21,WSW,244,4.5,4.5,84,0.02,,,0.02,VWS V14.01,2013-01-28 01:08:00,
2013-01-27 20:13:00,41.7,37.5,30.21,SSW,212,6.0,6.0,85,0.02,,,0.02,VWS V14.01,2013-01-28 01:13:00,
2013-01-27 20:18:00,41.7,37.9,30.21,South,186,3.0,4.5,86,0.03,,,0.03,VWS V14.01,2013-01-28 01:18:00,
2013-01-27 20:23:00,41.6,37.8,30.21,ESE,120,1.5,4.5,86,0.04,,,0.04,VWS V14.01,2013-01-28 01:23:00,
2013-01-27 20:28:00,41.5,38.0,30.21,South,179,6.0,7.5,87,0.04,,,0.05,VWS V14.01,2013-01-28 01:28:00,
2013-01-27 20:33:00,41.4,37.9,30.20,South,189,9.0,9.0,87,0.05,,,0.06,VWS V14.01,2013-01-28 01:33:00,
2013-01-27 20:38:00,41.4,38.2,30.20,South,191,4.5,4.5,88,0.06,,,0.07,VWS V14.01,2013-01-28 01:38:00,
2013-01-27 20:43:00,41.3,38.1,30.20,SSW,212,7.5,7.5,88,0.07,,,0.08,VWS V14.01,2013-01-28 01:43:00,
2013-01-27 20:48:00,41.3,38.4,30.20,SSW,195,1.5,3.0,89,0.08,,,0.09,VWS V14.01,2013-01-28 01:48:00,
2013-01-27 20:53:00,41.2,38.3,30.20,SSW,203,3.0,4.5,89,0.09,,,0.10,VWS V14.01,2013-01-28 01:53:00,
2013-01-27 20:58:00,41.3,38.4,30.20,SE,144,4.5,7.5,89,0.08,,,0.10,VWS V14.01,2013-01-28 01:58:00,
2013-01-27 21:03:00,41.3,38.7,30.20,ESE,111,1.5,6.0,90,0.09,,,0.11,VWS V14.01,2013-01-28 02:03:00,
2013-01-27 21:08:00,41.3,38.7,30.19,SSW,203,3.0,6.0,90,0.10,,,0.12,VWS V14.01,2013-01-28 02:08:00,
2013-01-27 21:13:00,41.3,38.7,30.19,South,179,4.5,4.5,90,0.10,,,0.12,VWS V14.01,2013-01-28 02:13:00,
2013-01-27 21:18:00,41.3,39.0,30.19,ENE,72,1.5,7.5,91,0.10,,,0.13,VWS V14.01,2013-01-28 02:18:00,
2013-01-27 21:23:00,41.3,39.0,30.19,SW,214,3.0,4.5,91,0.09,,,0.13,VWS V14.01,2013-01-28 02:23:00,
2013-01-27 21:27:00,41.3,39.0,30.19,ESE,117,6.0,7.5,91,0.08,,,0.13,VWS V14.01,2013-01-28 02:27:00,
2013-01-27 21:32:00,41.3,39.0,30.19,SSE,162,1.5,3.0,91,0.08,,,0.14,VWS V14.01,2013-01-28 02:32:00,
2013-01-27 21:37:00,41.3,39.0,30.19,ESE,119,3.0,3.0,91,0.07,,,0.14,VWS V14.01,2013-01-28 02:37:00,
2013-01-27 21:42:00,41.4,39.1,30.18,South,174,3.0,4.5,91,0.07,,,0.15,VWS V14.01,2013-01-28 02:42:00,
2013-01-27 21:47:00,41.4,39.4,30.18,WSW,245,4.5,4.5,92,0.06,,,0.15,VWS V14.01,2013-01-28 02:47:00,
2013-01-27 21:52:00,41.4,39.4,30.18,SSE,155,1.5,6.0,92,0.07,,,0.16,VWS V14.01,2013-01-28 02:52:00,
2013-01-27 21:57:00,41.4,39.4,30.18,South,182,3.0,6.0,92,0.06,,,0.16,VWS V14.01,2013-01-28 02:57:00,
2013-01-27 22:02:00,41.4,39.4,30.18,SE,138,4.5,6.0,92,0.05,,,0.16,VWS V14.01,2013-01-28 03:02:00,
2013-01-27 22:07:00,41.4,39.4,30.18,SSE,154,3.0,3.0,92,0.06,,,0.17,VWS V14.01,2013-01-28 03:07:00,
2013-01-27 22:12:00,41.5,39.5,30.17,SSE,164,4.5,4.5,92,0.05,,,0.17,VWS V14.01,2013-01-28 03:12:00,
2013-01-27 22:17:00,41.5,39.5,30.17,SSE,147,3.0,4.5,92,0.06,,,0.18,VWS V14.01,2013-01-28 03:17:00,
2013-01-27 22:22:00,41.6,39.8,30.17,South,174,7.5,9.0,93,0.05,,,0.18,VWS V14.01,2013-01-28 03:22:00,
2013-01-27 22:27:00,41.6,39.8,30.17,South,191,1.5,3.0,93,0.05,,,0.18,VWS V14.01,2013-01-28 03:27:00,
2013-01-27 22:32:00,41.7,40.0,30.17,SSW,195,3.0,6.0,93,0.04,,,0.18,VWS V14.01,2013-01-28 03:32:00,
2013-01-27 22:37:00,41.8,40.0,30.17,SE,136,4.5,6.0,93,0.04,,,0.18,VWS V14.01,2013-01-28 03:37:00,
2013-01-27 22:42:00,41.8,40.0,30.17,SSW,206,3.0,6.0,93,0.05,,,0.20,VWS V14.01,2013-01-28 03:42:00,
2013-01-27 22:47:00,41.8,40.0,30.17,SSE,165,4.5,4.5,93,0.05,,,0.20,VWS V14.01,2013-01-28 03:47:00,
2013-01-27 22:52:00,41.8,40.0,30.16,SW,231,3.0,9.0,93,0.04,,,0.20,VWS V14.01,2013-01-28 03:52:00,
2013-01-27 22:57:00,41.9,40.2,30.16,South,190,4.5,4.5,93,0.04,,,0.20,VWS V14.01,2013-01-28 03:57:00,
2013-01-27 23:02:00,41.9,40.2,30.17,WSW,248,1.5,4.5,93,0.04,,,0.20,VWS V14.01,2013-01-28 04:02:00,
2013-01-27 23:07:00,42.0,40.2,30.16,SSE,160,6.0,9.0,93,0.03,,,0.20,VWS V14.01,2013-01-28 04:07:00,
2013-01-27 23:12:00,42.0,40.2,30.16,SSW,201,3.0,6.0,93,0.03,,,0.20,VWS V14.01,2013-01-28 04:12:00,
2013-01-27 23:17:00,42.1,40.3,30.17,SSW,206,9.0,10.5,93,0.02,,,0.20,VWS V14.01,2013-01-28 04:17:00,
2013-01-27 23:22:00,42.2,40.5,30.16,WSW,246,3.0,4.5,93,0.02,,,0.20,VWS V14.01,2013-01-28 04:22:00,
2013-01-27 23:27:00,42.3,40.5,30.16,SSW,207,3.0,4.5,93,0.02,,,0.20,VWS V14.01,2013-01-28 04:27:00,
2013-01-27 23:32:00,42.3,40.5,30.16,SW,214,4.5,9.0,93,0.02,,,0.20,VWS V14.01,2013-01-28 04:32:00,
2013-01-27 23:37:00,42.4,40.7,30.16,South,183,4.5,4.5,93,0.02,,,0.20,VWS V14.01,2013-01-28 04:37:00,
2013-01-27 23:42:00,42.5,40.5,30.16,South,179,4.5,7.5,92,0.00,,,0.20,VWS V14.01,2013-01-28 04:42:00,
2013-01-27 23:47:00,42.6,40.6,30.16,SW,236,3.0,6.0,92,0.00,,,0.20,VWS V14.01,2013-01-28 04:47:00,
2013-01-27 23:52:00,42.6,40.6,30.15,South,177,4.5,4.5,92,0.00,,,0.20,VWS V14.01,2013-01-28 04:52:00,
2013-01-27 23:57:00,42.6,40.6,30.15,WSW,251,3.0,3.0,92,0.00,,,0.20,VWS V14.01,2013-01-28 04:57:00,